sensor_id;sensor_type;location;lat;lon;timestamp;pressure;altitude;pressure_sealevel;temperature
74750;BMP280;63269;53.330;-6.288;2023-07-30T00:01:35;100261.13;;;23.27
74750;BMP280;63269;53.330;-6.288;2023-07-30T00:04:01;100268.47;;;23.27
74750;BMP280;63269;53.330;-6.288;2023-07-30T00:06:26;100264.28;;;23.26
74750;BMP280;63269;53.330;-6.288;2023-07-30T00:08:52;100276.50;;;23.27
74750;BMP280;63269;53.330;-6.288;2023-07-30T00:11:17;100276.50;;;23.27
74750;BMP280;63269;53.330;-6.288;2023-07-30T00:13:42;100274.25;;;23.25
74750;BMP280;63269;53.330;-6.288;2023-07-30T00:16:08;100274.25;;;23.25
74750;BMP280;63269;53.330;-6.288;2023-07-30T00:18:33;100271.34;;;23.23
74750;BMP280;63269;53.330;-6.288;2023-07-30T00:20:59;100274.72;;;23.24
74750;BMP280;63269;53.330;-6.288;2023-07-30T00:23:24;100274.72;;;23.24
74750;BMP280;63269;53.330;-6.288;2023-07-30T00:25:50;100279.78;;;23.22
74750;BMP280;63269;53.330;-6.288;2023-07-30T00:28:15;100269.53;;;23.20
74750;BMP280;63269;53.330;-6.288;2023-07-30T00:30:40;100277.56;;;23.20
74750;BMP280;63269;53.330;-6.288;2023-07-30T00:33:06;100279.50;;;23.20
74750;BMP280;63269;53.330;-6.288;2023-07-30T00:35:31;100283.41;;;23.19
74750;BMP280;63269;53.330;-6.288;2023-07-30T00:37:57;100289.50;;;23.19
74750;BMP280;63269;53.330;-6.288;2023-07-30T00:40:22;100289.50;;;23.19
74750;BMP280;63269;53.330;-6.288;2023-07-30T00:42:47;100291.88;;;23.17
74750;BMP280;63269;53.330;-6.288;2023-07-30T00:45:13;100295.31;;;23.18
74750;BMP280;63269;53.330;-6.288;2023-07-30T00:47:38;100289.19;;;23.17
74750;BMP280;63269;53.330;-6.288;2023-07-30T00:50:05;100289.19;;;23.17
74750;BMP280;63269;53.330;-6.288;2023-07-30T00:52:32;100291.63;;;23.15
74750;BMP280;63269;53.330;-6.288;2023-07-30T00:54:59;100291.63;;;23.15
74750;BMP280;63269;53.330;-6.288;2023-07-30T00:57:26;100296.97;;;23.15
74750;BMP280;63269;53.330;-6.288;2023-07-30T00:59:51;100294.28;;;23.15
74750;BMP280;63269;53.330;-6.288;2023-07-30T01:02:17;100301.56;;;23.15
74750;BMP280;63269;53.330;-6.288;2023-07-30T01:04:43;100304.25;;;23.15
74750;BMP280;63269;53.330;-6.288;2023-07-30T01:07:09;100306.19;;;23.14
74750;BMP280;63269;53.330;-6.288;2023-07-30T01:09:35;100306.19;;;23.14
74750;BMP280;63269;53.330;-6.288;2023-07-30T01:12:01;100310.03;;;23.13
74750;BMP280;63269;53.330;-6.288;2023-07-30T01:14:27;100321.94;;;23.12
74750;BMP280;63269;53.330;-6.288;2023-07-30T01:16:53;100319.28;;;23.12
74750;BMP280;63269;53.330;-6.288;2023-07-30T01:19:19;100319.28;;;23.12
74750;BMP280;63269;53.330;-6.288;2023-07-30T01:21:44;100317.06;;;23.11
74750;BMP280;63269;53.330;-6.288;2023-07-30T01:24:10;100316.31;;;23.10
74750;BMP280;63269;53.330;-6.288;2023-07-30T01:26:43;100314.41;;;23.11
74750;BMP280;63269;53.330;-6.288;2023-07-30T01:29:14;100317.06;;;23.11
74750;BMP280;63269;53.330;-6.288;2023-07-30T01:31:42;100316.31;;;23.10
74750;BMP280;63269;53.330;-6.288;2023-07-30T01:34:09;100322.13;;;23.09
74750;BMP280;63269;53.330;-6.288;2023-07-30T01:36:37;100320.19;;;23.09
74750;BMP280;63269;53.330;-6.288;2023-07-30T01:39:04;100321.41;;;23.08
74750;BMP280;63269;53.330;-6.288;2023-07-30T01:41:30;100321.41;;;23.08
74750;BMP280;63269;53.330;-6.288;2023-07-30T01:43:55;100325.28;;;23.07
74750;BMP280;63269;53.330;-6.288;2023-07-30T01:46:20;100319.19;;;23.06
74750;BMP280;63269;53.330;-6.288;2023-07-30T01:48:46;100319.19;;;23.06
74750;BMP280;63269;53.330;-6.288;2023-07-30T01:51:11;100329.13;;;23.06
74750;BMP280;63269;53.330;-6.288;2023-07-30T01:53:36;100323.06;;;23.05
74750;BMP280;63269;53.330;-6.288;2023-07-30T01:56:02;100320.84;;;23.04
74750;BMP280;63269;53.330;-6.288;2023-07-30T01:58:27;100320.38;;;23.05
74750;BMP280;63269;53.330;-6.288;2023-07-30T02:00:53;100351.00;;;23.04
74750;BMP280;63269;53.330;-6.288;2023-07-30T02:03:18;100336.91;;;23.04
74750;BMP280;63269;53.330;-6.288;2023-07-30T02:05:44;100336.91;;;23.04
74750;BMP280;63269;53.330;-6.288;2023-07-30T02:08:09;100342.25;;;23.04
74750;BMP280;63269;53.330;-6.288;2023-07-30T02:10:35;100345.38;;;23.02
74750;BMP280;63269;53.330;-6.288;2023-07-30T02:13:00;100332.72;;;23.03
74750;BMP280;63269;53.330;-6.288;2023-07-30T02:15:25;100332.72;;;23.03
74750;BMP280;63269;53.330;-6.288;2023-07-30T02:17:51;100350.72;;;23.02
74750;BMP280;63269;53.330;-6.288;2023-07-30T02:20:16;100344.63;;;23.02
74750;BMP280;63269;53.330;-6.288;2023-07-30T02:22:45;100353.41;;;23.02
74750;BMP280;63269;53.330;-6.288;2023-07-30T02:25:10;100363.81;;;23.00
74750;BMP280;63269;53.330;-6.288;2023-07-30T02:27:35;100359.69;;;22.99
74750;BMP280;63269;53.330;-6.288;2023-07-30T02:30:01;100373.31;;;23.01
74750;BMP280;63269;53.330;-6.288;2023-07-30T02:32:26;100373.31;;;23.01
74750;BMP280;63269;53.330;-6.288;2023-07-30T02:34:52;100363.09;;;23.00
74750;BMP280;63269;53.330;-6.288;2023-07-30T02:37:17;100358.47;;;23.00
74750;BMP280;63269;53.330;-6.288;2023-07-30T02:39:42;100358.47;;;23.00
74750;BMP280;63269;53.330;-6.288;2023-07-30T02:42:08;100359.84;;;22.96
74750;BMP280;63269;53.330;-6.288;2023-07-30T02:44:33;100359.84;;;22.96
74750;BMP280;63269;53.330;-6.288;2023-07-30T02:46:59;100358.91;;;22.99
74750;BMP280;63269;53.330;-6.288;2023-07-30T02:49:24;100358.91;;;22.99
74750;BMP280;63269;53.330;-6.288;2023-07-30T02:51:49;100374.97;;;22.99
74750;BMP280;63269;53.330;-6.288;2023-07-30T02:54:15;100374.22;;;22.98
74750;BMP280;63269;53.330;-6.288;2023-07-30T02:56:46;100366.69;;;22.97
74750;BMP280;63269;53.330;-6.288;2023-07-30T02:59:11;100379.28;;;22.96
74750;BMP280;63269;53.330;-6.288;2023-07-30T03:01:36;100379.28;;;22.96
74750;BMP280;63269;53.330;-6.288;2023-07-30T03:04:03;100367.88;;;22.96
74750;BMP280;63269;53.330;-6.288;2023-07-30T03:06:29;100367.88;;;22.96
74750;BMP280;63269;53.330;-6.288;2023-07-30T03:08:54;100364.00;;;22.97
74750;BMP280;63269;53.330;-6.288;2023-07-30T03:11:20;100364.00;;;22.97
74750;BMP280;63269;53.330;-6.288;2023-07-30T03:13:45;100359.09;;;22.95
74750;BMP280;63269;53.330;-6.288;2023-07-30T03:16:10;100355.66;;;22.95
74750;BMP280;63269;53.330;-6.288;2023-07-30T03:18:36;100357.91;;;22.96
74750;BMP280;63269;53.330;-6.288;2023-07-30T03:21:01;100357.91;;;22.96
74750;BMP280;63269;53.330;-6.288;2023-07-30T03:23:27;100363.69;;;22.95
74750;BMP280;63269;53.330;-6.288;2023-07-30T03:25:53;100365.19;;;22.96
74750;BMP280;63269;53.330;-6.288;2023-07-30T03:28:18;100365.19;;;22.96
74750;BMP280;63269;53.330;-6.288;2023-07-30T03:30:43;100357.16;;;22.96
74750;BMP280;63269;53.330;-6.288;2023-07-30T03:33:09;100363.69;;;22.95
74750;BMP280;63269;53.330;-6.288;2023-07-30T03:35:34;100365.63;;;22.94
74750;BMP280;63269;53.330;-6.288;2023-07-30T03:38:00;100377.06;;;22.95
74750;BMP280;63269;53.330;-6.288;2023-07-30T03:40:25;100370.53;;;22.96
74750;BMP280;63269;53.330;-6.288;2023-07-30T03:42:51;100370.53;;;22.96
74750;BMP280;63269;53.330;-6.288;2023-07-30T03:45:16;100367.56;;;22.94
74750;BMP280;63269;53.330;-6.288;2023-07-30T03:47:42;100368.31;;;22.94
74750;BMP280;63269;53.330;-6.288;2023-07-30T03:50:07;100378.28;;;22.94
74750;BMP280;63269;53.330;-6.288;2023-07-30T03:52:33;100364.91;;;22.94
74750;BMP280;63269;53.330;-6.288;2023-07-30T03:54:58;100374.41;;;22.95
74750;BMP280;63269;53.330;-6.288;2023-07-30T03:57:23;100374.41;;;22.95
74750;BMP280;63269;53.330;-6.288;2023-07-30T03:59:49;100380.19;;;22.93
74750;BMP280;63269;53.330;-6.288;2023-07-30T04:02:14;100379.00;;;22.94
74750;BMP280;63269;53.330;-6.288;2023-07-30T04:04:41;100379.00;;;22.94
74750;BMP280;63269;53.330;-6.288;2023-07-30T04:07:09;100386.28;;;22.94
74750;BMP280;63269;53.330;-6.288;2023-07-30T04:09:35;100386.28;;;22.94
74750;BMP280;63269;53.330;-6.288;2023-07-30T04:12:01;100379.00;;;22.94
74750;BMP280;63269;53.330;-6.288;2023-07-30T04:14:26;100387.75;;;22.95
74750;BMP280;63269;53.330;-6.288;2023-07-30T04:16:51;100389.72;;;22.94
74750;BMP280;63269;53.330;-6.288;2023-07-30T04:19:17;100389.72;;;22.94
74750;BMP280;63269;53.330;-6.288;2023-07-30T04:21:42;100383.63;;;22.94
74750;BMP280;63269;53.330;-6.288;2023-07-30T04:24:08;100388.22;;;22.93
74750;BMP280;63269;53.330;-6.288;2023-07-30T04:26:33;100388.22;;;22.93
74750;BMP280;63269;53.330;-6.288;2023-07-30T04:28:58;100392.09;;;22.92
74750;BMP280;63269;53.330;-6.288;2023-07-30T04:31:24;100400.88;;;22.93
74750;BMP280;63269;53.330;-6.288;2023-07-30T04:33:49;100394.03;;;22.92
74750;BMP280;63269;53.330;-6.288;2023-07-30T04:36:14;100405.03;;;22.94
74750;BMP280;63269;53.330;-6.288;2023-07-30T04:38:40;100405.03;;;22.94
74750;BMP280;63269;53.330;-6.288;2023-07-30T04:41:05;100397.44;;;22.92
74750;BMP280;63269;53.330;-6.288;2023-07-30T04:43:31;100402.06;;;22.92
74750;BMP280;63269;53.330;-6.288;2023-07-30T04:45:56;100396.72;;;22.92
74750;BMP280;63269;53.330;-6.288;2023-07-30T04:48:22;100407.41;;;22.92
74750;BMP280;63269;53.330;-6.288;2023-07-30T04:50:47;100410.53;;;22.90
74750;BMP280;63269;53.330;-6.288;2023-07-30T04:53:12;100408.16;;;22.92
74750;BMP280;63269;53.330;-6.288;2023-07-30T04:55:38;100409.34;;;22.91
74750;BMP280;63269;53.330;-6.288;2023-07-30T04:58:03;100416.16;;;22.92
74750;BMP280;63269;53.330;-6.288;2023-07-30T05:00:29;100416.16;;;22.92
74750;BMP280;63269;53.330;-6.288;2023-07-30T05:02:54;100411.56;;;22.93
74750;BMP280;63269;53.330;-6.288;2023-07-30T05:05:20;100429.53;;;22.92
74750;BMP280;63269;53.330;-6.288;2023-07-30T05:07:45;100425.41;;;22.91
74750;BMP280;63269;53.330;-6.288;2023-07-30T05:10:10;100425.41;;;22.91
74750;BMP280;63269;53.330;-6.288;2023-07-30T05:12:36;100425.41;;;22.91
74750;BMP280;63269;53.330;-6.288;2023-07-30T05:15:02;100425.41;;;22.91
74750;BMP280;63269;53.330;-6.288;2023-07-30T05:17:28;100422.72;;;22.91
74750;BMP280;63269;53.330;-6.288;2023-07-30T05:19:54;100422.72;;;22.91
74750;BMP280;63269;53.330;-6.288;2023-07-30T05:22:19;100425.41;;;22.91
74750;BMP280;63269;53.330;-6.288;2023-07-30T05:24:45;100421.97;;;22.91
74750;BMP280;63269;53.330;-6.288;2023-07-30T05:27:10;100421.97;;;22.91
74750;BMP280;63269;53.330;-6.288;2023-07-30T05:29:36;100438.00;;;22.91
74750;BMP280;63269;53.330;-6.288;2023-07-30T05:32:01;100438.00;;;22.91
74750;BMP280;63269;53.330;-6.288;2023-07-30T05:34:26;100442.63;;;22.90
74750;BMP280;63269;53.330;-6.288;2023-07-30T05:36:52;100440.69;;;22.91
74750;BMP280;63269;53.330;-6.288;2023-07-30T05:39:17;100441.88;;;22.90
74750;BMP280;63269;53.330;-6.288;2023-07-30T05:41:42;100437.28;;;22.90
74750;BMP280;63269;53.330;-6.288;2023-07-30T05:44:08;100439.22;;;22.90
74750;BMP280;63269;53.330;-6.288;2023-07-30T05:46:33;100442.63;;;22.90
74750;BMP280;63269;53.330;-6.288;2023-07-30T05:48:59;100439.22;;;22.90
74750;BMP280;63269;53.330;-6.288;2023-07-30T05:51:24;100446.50;;;22.89
74750;BMP280;63269;53.330;-6.288;2023-07-30T05:53:49;100448.72;;;22.91
74750;BMP280;63269;53.330;-6.288;2023-07-30T05:56:15;100452.59;;;22.90
74750;BMP280;63269;53.330;-6.288;2023-07-30T05:58:43;100447.97;;;22.90
74750;BMP280;63269;53.330;-6.288;2023-07-30T06:01:09;100455.25;;;22.90
74750;BMP280;63269;53.330;-6.288;2023-07-30T06:03:34;100465.22;;;22.89
74750;BMP280;63269;53.330;-6.288;2023-07-30T06:06:01;100457.19;;;22.89
74750;BMP280;63269;53.330;-6.288;2023-07-30T06:08:27;100464.50;;;22.89
74750;BMP280;63269;53.330;-6.288;2023-07-30T06:10:52;100471.31;;;22.90
74750;BMP280;63269;53.330;-6.288;2023-07-30T06:13:18;100481.28;;;22.89
74750;BMP280;63269;53.330;-6.288;2023-07-30T06:15:43;100471.31;;;22.90
74750;BMP280;63269;53.330;-6.288;2023-07-30T06:18:09;100481.28;;;22.89
74750;BMP280;63269;53.330;-6.288;2023-07-30T06:20:34;100469.84;;;22.89
74750;BMP280;63269;53.330;-6.288;2023-07-30T06:23:00;100464.50;;;22.89
74750;BMP280;63269;53.330;-6.288;2023-07-30T06:25:25;100468.34;;;22.88
74750;BMP280;63269;53.330;-6.288;2023-07-30T06:27:51;100470.56;;;22.89
74750;BMP280;63269;53.330;-6.288;2023-07-30T06:30:16;100467.16;;;22.89
74750;BMP280;63269;53.330;-6.288;2023-07-30T06:32:42;100485.16;;;22.88
74750;BMP280;63269;53.330;-6.288;2023-07-30T06:35:07;100471.78;;;22.88
74750;BMP280;63269;53.330;-6.288;2023-07-30T06:37:33;100479.81;;;22.88
74750;BMP280;63269;53.330;-6.288;2023-07-30T06:39:59;100479.81;;;22.88
74750;BMP280;63269;53.330;-6.288;2023-07-30T06:42:25;100480.53;;;22.89
74750;BMP280;63269;53.330;-6.288;2023-07-30T06:44:50;100463.75;;;22.88
74750;BMP280;63269;53.330;-6.288;2023-07-30T06:47:15;100465.66;;;22.88
74750;BMP280;63269;53.330;-6.288;2023-07-30T06:49:41;100457.66;;;22.88
74750;BMP280;63269;53.330;-6.288;2023-07-30T06:52:06;100459.59;;;22.87
74750;BMP280;63269;53.330;-6.288;2023-07-30T06:54:32;100467.16;;;22.89
74750;BMP280;63269;53.330;-6.288;2023-07-30T06:56:57;100456.91;;;22.87
74750;BMP280;63269;53.330;-6.288;2023-07-30T06:59:23;100457.66;;;22.88
74750;BMP280;63269;53.330;-6.288;2023-07-30T07:01:48;100468.34;;;22.88
74750;BMP280;63269;53.330;-6.288;2023-07-30T07:04:13;100464.94;;;22.87
74750;BMP280;63269;53.330;-6.288;2023-07-30T07:06:39;100464.19;;;22.86
74750;BMP280;63269;53.330;-6.288;2023-07-30T07:09:04;100480.22;;;22.86
74750;BMP280;63269;53.330;-6.288;2023-07-30T07:11:29;100483.66;;;22.87
74750;BMP280;63269;53.330;-6.288;2023-07-30T07:13:55;100481.72;;;22.88
74750;BMP280;63269;53.330;-6.288;2023-07-30T07:16:20;100481.72;;;22.88
74750;BMP280;63269;53.330;-6.288;2023-07-30T07:18:46;100487.06;;;22.88
74750;BMP280;63269;53.330;-6.288;2023-07-30T07:21:14;100493.19;;;22.88
74750;BMP280;63269;53.330;-6.288;2023-07-30T07:23:39;100489.75;;;22.88
74750;BMP280;63269;53.330;-6.288;2023-07-30T07:26:04;100493.19;;;22.88
74750;BMP280;63269;53.330;-6.288;2023-07-30T07:28:30;100482.47;;;22.88
74750;BMP280;63269;53.330;-6.288;2023-07-30T07:30:55;100487.81;;;22.88
74750;BMP280;63269;53.330;-6.288;2023-07-30T07:33:21;100481.28;;;22.89
74750;BMP280;63269;53.330;-6.288;2023-07-30T07:35:47;100486.63;;;22.89
74750;BMP280;63269;53.330;-6.288;2023-07-30T07:38:14;100495.84;;;22.88
74750;BMP280;63269;53.330;-6.288;2023-07-30T07:40:39;100500.44;;;22.88
74750;BMP280;63269;53.330;-6.288;2023-07-30T07:43:05;100500.00;;;22.89
74750;BMP280;63269;53.330;-6.288;2023-07-30T07:45:31;100500.00;;;22.89
74750;BMP280;63269;53.330;-6.288;2023-07-30T07:47:56;100500.00;;;22.89
74750;BMP280;63269;53.330;-6.288;2023-07-30T07:50:22;100507.72;;;22.87
74750;BMP280;63269;53.330;-6.288;2023-07-30T07:52:47;100511.72;;;22.92
74750;BMP280;63269;53.330;-6.288;2023-07-30T07:55:13;100502.97;;;22.91
74750;BMP280;63269;53.330;-6.288;2023-07-30T07:57:38;100513.22;;;22.93
74750;BMP280;63269;53.330;-6.288;2023-07-30T08:00:04;100507.88;;;22.93
74750;BMP280;63269;53.330;-6.288;2023-07-30T08:02:30;100494.50;;;22.93
74750;BMP280;63269;53.330;-6.288;2023-07-30T08:04:56;100501.75;;;22.92
74750;BMP280;63269;53.330;-6.288;2023-07-30T08:07:24;100506.66;;;22.94
74750;BMP280;63269;53.330;-6.288;2023-07-30T08:09:49;100502.50;;;22.93
74750;BMP280;63269;53.330;-6.288;2023-07-30T08:12:16;100497.16;;;22.93
74750;BMP280;63269;53.330;-6.288;2023-07-30T08:14:42;100495.50;;;22.95
74750;BMP280;63269;53.330;-6.288;2023-07-30T08:17:07;100506.94;;;22.96
74750;BMP280;63269;53.330;-6.288;2023-07-30T08:19:33;100496.25;;;22.96
74750;BMP280;63269;53.330;-6.288;2023-07-30T08:21:58;100505.00;;;22.96
74750;BMP280;63269;53.330;-6.288;2023-07-30T08:24:24;100507.19;;;22.98
74750;BMP280;63269;53.330;-6.288;2023-07-30T08:26:49;100506.03;;;22.99
74750;BMP280;63269;53.330;-6.288;2023-07-30T08:29:15;100510.19;;;23.00
74750;BMP280;63269;53.330;-6.288;2023-07-30T08:31:41;100519.69;;;23.01
74750;BMP280;63269;53.330;-6.288;2023-07-30T08:34:06;100525.03;;;23.01
74750;BMP280;63269;53.330;-6.288;2023-07-30T08:36:32;100514.34;;;23.01
74750;BMP280;63269;53.330;-6.288;2023-07-30T08:38:58;100517.75;;;23.01
74750;BMP280;63269;53.330;-6.288;2023-07-30T08:41:23;100516.13;;;23.04
74750;BMP280;63269;53.330;-6.288;2023-07-30T08:43:49;100511.50;;;23.04
74750;BMP280;63269;53.330;-6.288;2023-07-30T08:46:17;100516.84;;;23.04
74750;BMP280;63269;53.330;-6.288;2023-07-30T08:48:42;100510.00;;;23.03
74750;BMP280;63269;53.330;-6.288;2023-07-30T08:51:08;100518.78;;;23.04
74750;BMP280;63269;53.330;-6.288;2023-07-30T08:53:33;100510.31;;;23.05
74750;BMP280;63269;53.330;-6.288;2023-07-30T08:55:59;100513.72;;;23.06
74750;BMP280;63269;53.330;-6.288;2023-07-30T08:58:27;100527.84;;;23.06
74750;BMP280;63269;53.330;-6.288;2023-07-30T09:00:55;100535.88;;;23.06
74750;BMP280;63269;53.330;-6.288;2023-07-30T09:03:22;100521.00;;;23.05
74750;BMP280;63269;53.330;-6.288;2023-07-30T09:05:48;100524.41;;;23.06
74750;BMP280;63269;53.330;-6.288;2023-07-30T09:08:14;100530.53;;;23.06
74750;BMP280;63269;53.330;-6.288;2023-07-30T09:10:41;100532.00;;;23.08
74750;BMP280;63269;53.330;-6.288;2023-07-30T09:13:06;100532.75;;;23.08
74750;BMP280;63269;53.330;-6.288;2023-07-30T09:15:37;100532.00;;;23.08
74750;BMP280;63269;53.330;-6.288;2023-07-30T09:18:03;100546.28;;;23.04
74750;BMP280;63269;53.330;-6.288;2023-07-30T09:20:39;100545.38;;;23.08
74750;BMP280;63269;53.330;-6.288;2023-07-30T09:23:06;100533.94;;;23.07
74750;BMP280;63269;53.330;-6.288;2023-07-30T09:25:32;100548.81;;;23.08
74750;BMP280;63269;53.330;-6.288;2023-07-30T09:27:57;100542.69;;;23.08
74750;BMP280;63269;53.330;-6.288;2023-07-30T09:30:25;100536.88;;;23.09
74750;BMP280;63269;53.330;-6.288;2023-07-30T09:32:59;100533.00;;;23.10
74750;BMP280;63269;53.330;-6.288;2023-07-30T09:35:26;100530.34;;;23.10
74750;BMP280;63269;53.330;-6.288;2023-07-30T09:38:02;100535.25;;;23.12
74750;BMP280;63269;53.330;-6.288;2023-07-30T09:40:32;100541.03;;;23.10
74750;BMP280;63269;53.330;-6.288;2023-07-30T09:42:58;100536.44;;;23.11
74750;BMP280;63269;53.330;-6.288;2023-07-30T09:45:25;100534.19;;;23.09
74750;BMP280;63269;53.330;-6.288;2023-07-30T09:47:52;100531.50;;;23.09
74750;BMP280;63269;53.330;-6.288;2023-07-30T09:50:18;100533.47;;;23.09
74750;BMP280;63269;53.330;-6.288;2023-07-30T09:52:44;100530.06;;;23.08
74750;BMP280;63269;53.330;-6.288;2023-07-30T09:55:11;100533.94;;;23.07
74750;BMP280;63269;53.330;-6.288;2023-07-30T09:57:37;100528.59;;;23.07
74750;BMP280;63269;53.330;-6.288;2023-07-30T10:00:05;100532.44;;;23.06
74750;BMP280;63269;53.330;-6.288;2023-07-30T10:02:31;100535.28;;;23.02
74750;BMP280;63269;53.330;-6.288;2023-07-30T10:04:59;100540.94;;;23.04
74750;BMP280;63269;53.330;-6.288;2023-07-30T10:07:26;100539.00;;;23.05
74750;BMP280;63269;53.330;-6.288;2023-07-30T10:09:55;100545.06;;;23.05
74750;BMP280;63269;53.330;-6.288;2023-07-30T10:12:28;100549.97;;;23.07
74750;BMP280;63269;53.330;-6.288;2023-07-30T10:14:56;100539.13;;;23.11
74750;BMP280;63269;53.330;-6.288;2023-07-30T10:17:21;100547.22;;;23.16
74750;BMP280;63269;53.330;-6.288;2023-07-30T10:19:48;100538.59;;;23.21
74750;BMP280;63269;53.330;-6.288;2023-07-30T10:22:23;100548.97;;;23.28
74750;BMP280;63269;53.330;-6.288;2023-07-30T10:25:03;100544.50;;;23.35
74750;BMP280;63269;53.330;-6.288;2023-07-30T10:27:40;100550.84;;;23.37
74750;BMP280;63269;53.330;-6.288;2023-07-30T10:30:16;100551.41;;;23.41
74750;BMP280;63269;53.330;-6.288;2023-07-30T10:33:00;100547.81;;;23.44
74750;BMP280;63269;53.330;-6.288;2023-07-30T10:35:45;100541.56;;;23.47
74750;BMP280;63269;53.330;-6.288;2023-07-30T10:38:21;100539.63;;;23.48
74750;BMP280;63269;53.330;-6.288;2023-07-30T10:41:15;100545.72;;;23.48
74750;BMP280;63269;53.330;-6.288;2023-07-30T10:43:50;100537.69;;;23.48
74750;BMP280;63269;53.330;-6.288;2023-07-30T10:49:38;100539.38;;;23.46
74750;BMP280;63269;53.330;-6.288;2023-07-30T10:52:05;100531.34;;;23.46
74750;BMP280;63269;53.330;-6.288;2023-07-30T10:54:35;100534.00;;;23.46
74750;BMP280;63269;53.330;-6.288;2023-07-30T10:57:00;100540.56;;;23.45
74750;BMP280;63269;53.330;-6.288;2023-07-30T10:59:26;100535.19;;;23.45
74750;BMP280;63269;53.330;-6.288;2023-07-30T11:01:58;100536.69;;;23.46
74750;BMP280;63269;53.330;-6.288;2023-07-30T11:04:23;100536.69;;;23.46
74750;BMP280;63269;53.330;-6.288;2023-07-30T11:06:50;100535.19;;;23.45
74750;BMP280;63269;53.330;-6.288;2023-07-30T11:09:23;100535.94;;;23.45
74750;BMP280;63269;53.330;-6.288;2023-07-30T11:11:50;100534.88;;;23.43
74750;BMP280;63269;53.330;-6.288;2023-07-30T11:14:17;100557.53;;;23.42
74750;BMP280;63269;53.330;-6.288;2023-07-30T11:16:58;100557.53;;;23.42
74750;BMP280;63269;53.330;-6.288;2023-07-30T11:19:24;100534.63;;;23.41
74750;BMP280;63269;53.330;-6.288;2023-07-30T11:21:53;100535.06;;;23.39
74750;BMP280;63269;53.330;-6.288;2023-07-30T11:24:22;100535.06;;;23.39
74750;BMP280;63269;53.330;-6.288;2023-07-30T11:27:00;100537.47;;;23.37
74750;BMP280;63269;53.330;-6.288;2023-07-30T11:29:25;100530.19;;;23.38
74750;BMP280;63269;53.330;-6.288;2023-07-30T11:31:51;100533.03;;;23.34
74750;BMP280;63269;53.330;-6.288;2023-07-30T11:34:20;100533.03;;;23.34
74750;BMP280;63269;53.330;-6.288;2023-07-30T11:36:46;100525.44;;;23.33
74750;BMP280;63269;53.330;-6.288;2023-07-30T11:39:11;100532.75;;;23.32
74750;BMP280;63269;53.330;-6.288;2023-07-30T11:41:37;100532.75;;;23.32
74750;BMP280;63269;53.330;-6.288;2023-07-30T11:44:03;100534.66;;;23.32
74750;BMP280;63269;53.330;-6.288;2023-07-30T11:46:29;100529.06;;;23.30
74750;BMP280;63269;53.330;-6.288;2023-07-30T11:49:13;100529.06;;;23.30
74750;BMP280;63269;53.330;-6.288;2023-07-30T11:51:39;100519.53;;;23.28
74750;BMP280;63269;53.330;-6.288;2023-07-30T11:54:05;100521.19;;;23.26
74750;BMP280;63269;53.330;-6.288;2023-07-30T11:56:34;100525.06;;;23.25
74750;BMP280;63269;53.330;-6.288;2023-07-30T11:59:02;100515.09;;;23.25
74750;BMP280;63269;53.330;-6.288;2023-07-30T12:01:31;100523.84;;;23.26
74750;BMP280;63269;53.330;-6.288;2023-07-30T12:04:00;100520.88;;;23.24
74750;BMP280;63269;53.330;-6.288;2023-07-30T12:06:46;100514.06;;;23.23
74750;BMP280;63269;53.330;-6.288;2023-07-30T12:11:48;100506.50;;;23.21
74750;BMP280;63269;53.330;-6.288;2023-07-30T12:14:13;100506.50;;;23.21
74750;BMP280;63269;53.330;-6.288;2023-07-30T12:16:39;100508.16;;;23.19
74750;BMP280;63269;53.330;-6.288;2023-07-30T12:19:05;100518.13;;;23.18
74750;BMP280;63269;53.330;-6.288;2023-07-30T12:21:30;100518.13;;;23.18
74750;BMP280;63269;53.330;-6.288;2023-07-30T12:23:56;100517.38;;;23.18
74750;BMP280;63269;53.330;-6.288;2023-07-30T12:26:21;100511.28;;;23.17
74750;BMP280;63269;53.330;-6.288;2023-07-30T12:28:46;100511.28;;;23.17
74750;BMP280;63269;53.330;-6.288;2023-07-30T12:31:12;100506.38;;;23.16
74750;BMP280;63269;53.330;-6.288;2023-07-30T12:33:37;100506.38;;;23.16
74750;BMP280;63269;53.330;-6.288;2023-07-30T12:36:03;100514.88;;;23.14
74750;BMP280;63269;53.330;-6.288;2023-07-30T12:38:28;100514.88;;;23.14
74750;BMP280;63269;53.330;-6.288;2023-07-30T12:40:54;100503.88;;;23.12
74750;BMP280;63269;53.330;-6.288;2023-07-30T12:43:19;100511.91;;;23.12
74750;BMP280;63269;53.330;-6.288;2023-07-30T12:45:45;100511.91;;;23.12
74750;BMP280;63269;53.330;-6.288;2023-07-30T12:48:11;100508.50;;;23.12
74750;BMP280;63269;53.330;-6.288;2023-07-30T12:50:37;100505.09;;;23.11
74750;BMP280;63269;53.330;-6.288;2023-07-30T12:53:02;100505.81;;;23.12
74750;BMP280;63269;53.330;-6.288;2023-07-30T12:55:28;100505.81;;;23.12
74750;BMP280;63269;53.330;-6.288;2023-07-30T12:57:53;100504.75;;;23.09
74750;BMP280;63269;53.330;-6.288;2023-07-30T13:00:18;100504.75;;;23.09
74750;BMP280;63269;53.330;-6.288;2023-07-30T13:02:44;100500.19;;;23.10
74750;BMP280;63269;53.330;-6.288;2023-07-30T13:05:10;100500.19;;;23.10
74750;BMP280;63269;53.330;-6.288;2023-07-30T13:07:35;100498.22;;;23.10
74750;BMP280;63269;53.330;-6.288;2023-07-30T13:10:07;100498.22;;;23.10
74750;BMP280;63269;53.330;-6.288;2023-07-30T13:12:33;100496.75;;;23.09
74750;BMP280;63269;53.330;-6.288;2023-07-30T13:14:59;100505.53;;;23.10
74750;BMP280;63269;53.330;-6.288;2023-07-30T13:17:24;100505.53;;;23.10
74750;BMP280;63269;53.330;-6.288;2023-07-30T13:19:49;100499.72;;;23.11
74750;BMP280;63269;53.330;-6.288;2023-07-30T13:22:15;100502.84;;;23.10
74750;BMP280;63269;53.330;-6.288;2023-07-30T13:24:40;100502.84;;;23.10
74750;BMP280;63269;53.330;-6.288;2023-07-30T13:27:06;100498.69;;;23.09
74750;BMP280;63269;53.330;-6.288;2023-07-30T13:29:31;100498.69;;;23.09
74750;BMP280;63269;53.330;-6.288;2023-07-30T13:31:56;100485.31;;;23.09
74750;BMP280;63269;53.330;-6.288;2023-07-30T13:34:22;100483.09;;;23.07
74750;BMP280;63269;53.330;-6.288;2023-07-30T13:36:48;100484.59;;;23.08
74750;BMP280;63269;53.330;-6.288;2023-07-30T13:39:13;100484.59;;;23.08
74750;BMP280;63269;53.330;-6.288;2023-07-30T13:41:39;100470.91;;;23.06
74750;BMP280;63269;53.330;-6.288;2023-07-30T13:44:04;100472.66;;;23.09
74750;BMP280;63269;53.330;-6.288;2023-07-30T13:46:30;100472.66;;;23.09